sensor_id;sensor_type;location;lat;lon;timestamp;P1;durP1;ratioP1;P2;durP2;ratioP2
74674;SDS011;63200;48.810;12.352;2022-09-21T00:00:29;2.95;;;2.63;;
74674;SDS011;63200;48.810;12.352;2022-09-21T00:02:55;2.53;;;2.30;;
74674;SDS011;63200;48.810;12.352;2022-09-21T00:05:21;2.85;;;2.55;;
74674;SDS011;63200;48.810;12.352;2022-09-21T00:07:48;3.53;;;2.28;;
74674;SDS011;63200;48.810;12.352;2022-09-21T00:10:13;2.30;;;2.20;;
74674;SDS011;63200;48.810;12.352;2022-09-21T00:12:38;3.28;;;2.30;;
74674;SDS011;63200;48.810;12.352;2022-09-21T00:15:08;4.80;;;2.45;;
74674;SDS011;63200;48.810;12.352;2022-09-21T00:17:34;4.13;;;2.40;;
74674;SDS011;63200;48.810;12.352;2022-09-21T00:20:00;2.45;;;2.28;;
74674;SDS011;63200;48.810;12.352;2022-09-21T00:22:29;2.33;;;2.05;;
74674;SDS011;63200;48.810;12.352;2022-09-21T00:24:54;2.72;;;2.53;;
74674;SDS011;63200;48.810;12.352;2022-09-21T00:27:20;2.72;;;2.22;;
74674;SDS011;63200;48.810;12.352;2022-09-21T00:29:48;2.42;;;2.22;;
74674;SDS011;63200;48.810;12.352;2022-09-21T00:32:14;3.90;;;2.33;;
74674;SDS011;63200;48.810;12.352;2022-09-21T00:34:39;4.90;;;2.10;;
74674;SDS011;63200;48.810;12.352;2022-09-21T00:37:05;2.63;;;2.42;;
74674;SDS011;63200;48.810;12.352;2022-09-21T00:39:33;2.80;;;2.10;;
74674;SDS011;63200;48.810;12.352;2022-09-21T00:41:58;3.10;;;2.00;;
74674;SDS011;63200;48.810;12.352;2022-09-21T00:44:27;3.70;;;2.45;;
74674;SDS011;63200;48.810;12.352;2022-09-21T00:46:57;2.88;;;2.00;;
74674;SDS011;63200;48.810;12.352;2022-09-21T00:49:28;1.92;;;1.83;;
74674;SDS011;63200;48.810;12.352;2022-09-21T00:51:56;2.65;;;2.45;;
74674;SDS011;63200;48.810;12.352;2022-09-21T00:54:27;2.10;;;2.00;;
74674;SDS011;63200;48.810;12.352;2022-09-21T00:56:57;2.33;;;2.10;;
74674;SDS011;63200;48.810;12.352;2022-09-21T00:59:25;2.33;;;2.20;;
74674;SDS011;63200;48.810;12.352;2022-09-21T01:01:51;2.10;;;2.00;;
74674;SDS011;63200;48.810;12.352;2022-09-21T01:04:17;4.47;;;2.30;;
74674;SDS011;63200;48.810;12.352;2022-09-21T01:06:43;2.25;;;2.15;;
74674;SDS011;63200;48.810;12.352;2022-09-21T01:09:11;2.45;;;2.00;;
74674;SDS011;63200;48.810;12.352;2022-09-21T01:29:43;1.67;;;1.58;;
74674;SDS011;63200;48.810;12.352;2022-09-21T01:32:17;2.10;;;1.95;;
74674;SDS011;63200;48.810;12.352;2022-09-21T01:34:53;1.95;;;1.83;;
74674;SDS011;63200;48.810;12.352;2022-09-21T01:37:24;4.88;;;1.90;;
74674;SDS011;63200;48.810;12.352;2022-09-21T01:39:58;3.90;;;1.80;;
74674;SDS011;63200;48.810;12.352;2022-09-21T01:42:28;1.80;;;1.70;;
74674;SDS011;63200;48.810;12.352;2022-09-21T01:44:57;2.60;;;1.88;;
74674;SDS011;63200;48.810;12.352;2022-09-21T01:47:25;3.38;;;1.95;;
74674;SDS011;63200;48.810;12.352;2022-09-21T01:49:55;3.20;;;1.83;;
74674;SDS011;63200;48.810;12.352;2022-09-21T01:52:28;5.65;;;2.20;;
74674;SDS011;63200;48.810;12.352;2022-09-21T01:55:00;1.92;;;1.83;;
74674;SDS011;63200;48.810;12.352;2022-09-21T02:00:07;2.08;;;1.95;;
74674;SDS011;63200;48.810;12.352;2022-09-21T02:02:52;2.13;;;2.00;;
74674;SDS011;63200;48.810;12.352;2022-09-21T02:05:26;2.33;;;1.85;;
74674;SDS011;63200;48.810;12.352;2022-09-21T02:07:54;2.47;;;1.95;;
74674;SDS011;63200;48.810;12.352;2022-09-21T02:10:30;1.83;;;1.80;;
74674;SDS011;63200;48.810;12.352;2022-09-21T02:13:00;2.42;;;2.28;;
74674;SDS011;63200;48.810;12.352;2022-09-21T02:18:31;2.33;;;2.22;;
74674;SDS011;63200;48.810;12.352;2022-09-21T02:32:08;2.58;;;2.47;;
74674;SDS011;63200;48.810;12.352;2022-09-21T02:37:34;2.30;;;2.10;;
74674;SDS011;63200;48.810;12.352;2022-09-21T02:43:01;2.00;;;1.90;;
74674;SDS011;63200;48.810;12.352;2022-09-21T02:45:37;2.20;;;2.10;;
74674;SDS011;63200;48.810;12.352;2022-09-21T02:48:12;2.28;;;2.15;;
74674;SDS011;63200;48.810;12.352;2022-09-21T02:50:42;2.40;;;2.20;;
74674;SDS011;63200;48.810;12.352;2022-09-21T02:53:10;2.60;;;2.40;;
74674;SDS011;63200;48.810;12.352;2022-09-21T02:55:39;2.28;;;2.17;;
74674;SDS011;63200;48.810;12.352;2022-09-21T02:58:06;2.40;;;2.28;;
74674;SDS011;63200;48.810;12.352;2022-09-21T03:00:34;3.53;;;1.83;;
74674;SDS011;63200;48.810;12.352;2022-09-21T03:03:03;2.20;;;2.10;;
74674;SDS011;63200;48.810;12.352;2022-09-21T03:05:41;2.67;;;2.10;;
74674;SDS011;63200;48.810;12.352;2022-09-21T03:08:07;3.38;;;2.00;;
74674;SDS011;63200;48.810;12.352;2022-09-21T03:10:32;2.67;;;2.25;;
74674;SDS011;63200;48.810;12.352;2022-09-21T03:12:59;2.10;;;1.92;;
74674;SDS011;63200;48.810;12.352;2022-09-21T03:15:25;3.10;;;1.77;;
74674;SDS011;63200;48.810;12.352;2022-09-21T03:17:51;1.77;;;1.67;;
74674;SDS011;63200;48.810;12.352;2022-09-21T03:20:17;1.77;;;1.67;;
74674;SDS011;63200;48.810;12.352;2022-09-21T03:22:42;3.55;;;1.67;;
74674;SDS011;63200;48.810;12.352;2022-09-21T03:25:08;2.08;;;1.77;;
74674;SDS011;63200;48.810;12.352;2022-09-21T03:27:37;2.30;;;2.20;;
74674;SDS011;63200;48.810;12.352;2022-09-21T03:30:02;2.00;;;1.90;;
74674;SDS011;63200;48.810;12.352;2022-09-21T03:32:28;2.28;;;2.17;;
74674;SDS011;63200;48.810;12.352;2022-09-21T03:34:53;1.75;;;1.60;;
74674;SDS011;63200;48.810;12.352;2022-09-21T03:37:19;2.40;;;2.08;;
74674;SDS011;63200;48.810;12.352;2022-09-21T03:39:44;2.58;;;1.67;;
74674;SDS011;63200;48.810;12.352;2022-09-21T03:42:11;1.90;;;1.80;;
74674;SDS011;63200;48.810;12.352;2022-09-21T03:44:38;1.95;;;1.85;;
74674;SDS011;63200;48.810;12.352;2022-09-21T03:47:03;1.83;;;1.58;;
74674;SDS011;63200;48.810;12.352;2022-09-21T03:49:30;2.67;;;1.85;;
74674;SDS011;63200;48.810;12.352;2022-09-21T03:51:56;2.00;;;1.90;;
74674;SDS011;63200;48.810;12.352;2022-09-21T03:54:23;2.22;;;1.83;;
74674;SDS011;63200;48.810;12.352;2022-09-21T03:56:49;1.88;;;1.77;;
74674;SDS011;63200;48.810;12.352;2022-09-21T03:59:15;2.83;;;1.73;;
74674;SDS011;63200;48.810;12.352;2022-09-21T04:01:41;3.58;;;1.80;;
74674;SDS011;63200;48.810;12.352;2022-09-21T04:04:06;1.80;;;1.80;;
74674;SDS011;63200;48.810;12.352;2022-09-21T04:06:32;2.63;;;2.00;;
74674;SDS011;63200;48.810;12.352;2022-09-21T04:08:58;2.40;;;1.90;;
74674;SDS011;63200;48.810;12.352;2022-09-21T04:11:24;1.90;;;1.80;;
74674;SDS011;63200;48.810;12.352;2022-09-21T04:13:49;2.10;;;2.00;;
74674;SDS011;63200;48.810;12.352;2022-09-21T04:16:21;2.58;;;2.10;;
74674;SDS011;63200;48.810;12.352;2022-09-21T04:18:47;2.25;;;2.05;;
74674;SDS011;63200;48.810;12.352;2022-09-21T04:21:14;2.03;;;1.92;;
74674;SDS011;63200;48.810;12.352;2022-09-21T04:23:41;5.68;;;3.10;;
74674;SDS011;63200;48.810;12.352;2022-09-21T04:26:15;2.03;;;1.90;;
74674;SDS011;63200;48.810;12.352;2022-09-21T04:28:44;5.03;;;2.03;;
74674;SDS011;63200;48.810;12.352;2022-09-21T04:31:09;2.60;;;1.90;;
74674;SDS011;63200;48.810;12.352;2022-09-21T04:33:34;2.38;;;2.17;;
74674;SDS011;63200;48.810;12.352;2022-09-21T04:36:00;2.42;;;2.33;;
74674;SDS011;63200;48.810;12.352;2022-09-21T04:38:26;4.63;;;1.98;;
74674;SDS011;63200;48.810;12.352;2022-09-21T04:40:57;2.20;;;2.10;;
74674;SDS011;63200;48.810;12.352;2022-09-21T04:43:23;3.95;;;2.30;;
74674;SDS011;63200;48.810;12.352;2022-09-21T04:45:50;2.58;;;2.17;;
74674;SDS011;63200;48.810;12.352;2022-09-21T04:48:15;2.30;;;2.10;;
74674;SDS011;63200;48.810;12.352;2022-09-21T04:50:42;2.35;;;2.15;;
74674;SDS011;63200;48.810;12.352;2022-09-21T04:53:07;2.22;;;2.08;;
74674;SDS011;63200;48.810;12.352;2022-09-21T04:55:33;2.55;;;2.03;;
74674;SDS011;63200;48.810;12.352;2022-09-21T04:57:59;2.40;;;2.30;;
74674;SDS011;63200;48.810;12.352;2022-09-21T05:00:24;2.55;;;2.40;;
74674;SDS011;63200;48.810;12.352;2022-09-21T05:02:50;2.60;;;2.40;;
74674;SDS011;63200;48.810;12.352;2022-09-21T05:05:16;4.38;;;2.28;;
74674;SDS011;63200;48.810;12.352;2022-09-21T05:07:41;2.45;;;1.90;;
74674;SDS011;63200;48.810;12.352;2022-09-21T05:10:07;3.38;;;2.15;;
74674;SDS011;63200;48.810;12.352;2022-09-21T05:12:33;2.53;;;1.75;;
74674;SDS011;63200;48.810;12.352;2022-09-21T05:14:59;2.45;;;2.03;;
74674;SDS011;63200;48.810;12.352;2022-09-21T05:17:24;2.03;;;1.92;;
74674;SDS011;63200;48.810;12.352;2022-09-21T05:19:50;2.30;;;2.15;;
74674;SDS011;63200;48.810;12.352;2022-09-21T05:22:17;2.03;;;1.92;;
74674;SDS011;63200;48.810;12.352;2022-09-21T05:24:43;2.63;;;1.90;;
74674;SDS011;63200;48.810;12.352;2022-09-21T05:27:08;4.90;;;1.80;;
74674;SDS011;63200;48.810;12.352;2022-09-21T05:29:33;1.70;;;1.70;;
74674;SDS011;63200;48.810;12.352;2022-09-21T05:32:02;2.53;;;2.13;;
74674;SDS011;63200;48.810;12.352;2022-09-21T05:34:38;3.08;;;1.90;;
74674;SDS011;63200;48.810;12.352;2022-09-21T05:37:22;1.92;;;1.90;;
74674;SDS011;63200;48.810;12.352;2022-09-21T05:40:01;2.20;;;2.00;;
74674;SDS011;63200;48.810;12.352;2022-09-21T05:42:27;5.40;;;2.15;;
74674;SDS011;63200;48.810;12.352;2022-09-21T05:44:53;2.22;;;2.00;;
74674;SDS011;63200;48.810;12.352;2022-09-21T05:52:38;2.00;;;1.90;;
74674;SDS011;63200;48.810;12.352;2022-09-21T05:55:23;2.22;;;2.13;;
74674;SDS011;63200;48.810;12.352;2022-09-21T05:59:11;2.22;;;2.08;;
74674;SDS011;63200;48.810;12.352;2022-09-21T06:01:22;3.05;;;2.40;;
74674;SDS011;63200;48.810;12.352;2022-09-21T06:03:58;3.47;;;2.67;;
74674;SDS011;63200;48.810;12.352;2022-09-21T06:06:24;9.38;;;3.05;;
74674;SDS011;63200;48.810;12.352;2022-09-21T06:08:49;11.63;;;3.75;;
74674;SDS011;63200;48.810;12.352;2022-09-21T06:11:15;10.23;;;4.35;;
74674;SDS011;63200;48.810;12.352;2022-09-21T06:13:41;9.48;;;3.88;;
74674;SDS011;63200;48.810;12.352;2022-09-21T06:16:06;7.88;;;4.70;;
74674;SDS011;63200;48.810;12.352;2022-09-21T06:18:35;7.65;;;4.32;;
74674;SDS011;63200;48.810;12.352;2022-09-21T06:21:02;23.90;;;4.88;;
74674;SDS011;63200;48.810;12.352;2022-09-21T06:23:28;18.50;;;4.95;;
74674;SDS011;63200;48.810;12.352;2022-09-21T06:25:53;6.32;;;4.20;;
74674;SDS011;63200;48.810;12.352;2022-09-21T06:28:18;21.30;;;5.05;;
74674;SDS011;63200;48.810;12.352;2022-09-21T06:30:49;21.70;;;5.35;;
74674;SDS011;63200;48.810;12.352;2022-09-21T06:33:18;28.38;;;3.95;;
74674;SDS011;63200;48.810;12.352;2022-09-21T06:36:05;28.58;;;4.47;;
74674;SDS011;63200;48.810;12.352;2022-09-21T06:38:31;23.38;;;4.07;;
74674;SDS011;63200;48.810;12.352;2022-09-21T06:41:02;7.50;;;3.80;;
74674;SDS011;63200;48.810;12.352;2022-09-21T06:43:28;22.23;;;4.57;;
74674;SDS011;63200;48.810;12.352;2022-09-21T06:45:55;59.15;;;4.82;;
74674;SDS011;63200;48.810;12.352;2022-09-21T06:48:21;62.83;;;4.90;;
74674;SDS011;63200;48.810;12.352;2022-09-21T06:50:47;15.77;;;4.03;;
74674;SDS011;63200;48.810;12.352;2022-09-21T06:53:13;23.83;;;4.40;;
74674;SDS011;63200;48.810;12.352;2022-09-21T06:55:39;59.05;;;5.70;;
74674;SDS011;63200;48.810;12.352;2022-09-21T06:58:05;23.88;;;3.90;;
74674;SDS011;63200;48.810;12.352;2022-09-21T07:00:30;42.88;;;4.35;;
74674;SDS011;63200;48.810;12.352;2022-09-21T07:02:56;80.15;;;5.90;;
74674;SDS011;63200;48.810;12.352;2022-09-21T07:05:22;65.07;;;5.03;;
74674;SDS011;63200;48.810;12.352;2022-09-21T07:07:47;61.45;;;4.60;;
74674;SDS011;63200;48.810;12.352;2022-09-21T07:10:12;31.45;;;4.55;;
74674;SDS011;63200;48.810;12.352;2022-09-21T07:12:38;45.47;;;5.20;;
74674;SDS011;63200;48.810;12.352;2022-09-21T07:15:04;30.77;;;6.60;;
74674;SDS011;63200;48.810;12.352;2022-09-21T07:17:31;28.55;;;6.65;;
74674;SDS011;63200;48.810;12.352;2022-09-21T07:19:57;15.55;;;6.32;;
74674;SDS011;63200;48.810;12.352;2022-09-21T07:22:22;21.17;;;5.20;;
74674;SDS011;63200;48.810;12.352;2022-09-21T07:24:48;53.78;;;5.50;;
74674;SDS011;63200;48.810;12.352;2022-09-21T07:27:13;45.15;;;5.03;;
74674;SDS011;63200;48.810;12.352;2022-09-21T07:29:39;43.85;;;4.60;;
74674;SDS011;63200;48.810;12.352;2022-09-21T07:32:04;32.17;;;6.03;;
74674;SDS011;63200;48.810;12.352;2022-09-21T07:34:33;88.03;;;7.20;;
74674;SDS011;63200;48.810;12.352;2022-09-21T07:36:59;53.78;;;5.65;;
74674;SDS011;63200;48.810;12.352;2022-09-21T07:39:24;22.70;;;4.70;;
74674;SDS011;63200;48.810;12.352;2022-09-21T07:41:49;112.70;;;8.65;;
74674;SDS011;63200;48.810;12.352;2022-09-21T07:44:15;49.40;;;5.97;;
74674;SDS011;63200;48.810;12.352;2022-09-21T07:46:40;79.78;;;5.63;;
74674;SDS011;63200;48.810;12.352;2022-09-21T07:49:06;20.42;;;4.82;;
74674;SDS011;63200;48.810;12.352;2022-09-21T07:51:31;15.32;;;5.03;;
74674;SDS011;63200;48.810;12.352;2022-09-21T07:53:57;8.15;;;5.10;;
74674;SDS011;63200;48.810;12.352;2022-09-21T07:56:22;12.68;;;5.30;;
74674;SDS011;63200;48.810;12.352;2022-09-21T07:58:47;58.42;;;5.93;;
74674;SDS011;63200;48.810;12.352;2022-09-21T08:01:32;43.25;;;5.22;;
74674;SDS011;63200;48.810;12.352;2022-09-21T08:04:06;19.17;;;5.00;;
74674;SDS011;63200;48.810;12.352;2022-09-21T08:06:33;6.65;;;4.63;;
74674;SDS011;63200;48.810;12.352;2022-09-21T08:09:00;6.38;;;4.28;;
74674;SDS011;63200;48.810;12.352;2022-09-21T08:11:27;9.25;;;4.80;;
74674;SDS011;63200;48.810;12.352;2022-09-21T08:13:55;11.65;;;5.22;;
74674;SDS011;63200;48.810;12.352;2022-09-21T08:16:23;7.13;;;4.40;;
74674;SDS011;63200;48.810;12.352;2022-09-21T08:18:50;5.47;;;4.68;;
74674;SDS011;63200;48.810;12.352;2022-09-21T08:21:15;6.68;;;4.50;;
74674;SDS011;63200;48.810;12.352;2022-09-21T08:23:41;8.68;;;4.78;;
74674;SDS011;63200;48.810;12.352;2022-09-21T08:26:07;6.60;;;4.38;;
74674;SDS011;63200;48.810;12.352;2022-09-21T08:28:38;6.47;;;4.80;;
74674;SDS011;63200;48.810;12.352;2022-09-21T08:31:05;7.35;;;5.20;;
74674;SDS011;63200;48.810;12.352;2022-09-21T08:33:32;6.07;;;5.20;;
74674;SDS011;63200;48.810;12.352;2022-09-21T08:35:59;6.30;;;4.72;;
74674;SDS011;63200;48.810;12.352;2022-09-21T08:38:25;4.60;;;4.18;;
74674;SDS011;63200;48.810;12.352;2022-09-21T08:40:51;6.45;;;4.47;;
74674;SDS011;63200;48.810;12.352;2022-09-21T08:43:38;6.22;;;5.43;;
74674;SDS011;63200;48.810;12.352;2022-09-21T08:46:06;5.32;;;4.82;;
74674;SDS011;63200;48.810;12.352;2022-09-21T08:48:38;5.45;;;4.90;;
74674;SDS011;63200;48.810;12.352;2022-09-21T08:51:12;5.55;;;5.05;;
74674;SDS011;63200;48.810;12.352;2022-09-21T08:53:44;5.22;;;4.60;;
74674;SDS011;63200;48.810;12.352;2022-09-21T08:56:13;6.50;;;5.07;;
74674;SDS011;63200;48.810;12.352;2022-09-21T08:58:40;5.15;;;4.40;;
74674;SDS011;63200;48.810;12.352;2022-09-21T09:12:14;4.05;;;3.75;;
74674;SDS011;63200;48.810;12.352;2022-09-21T09:17:47;5.70;;;3.80;;
74674;SDS011;63200;48.810;12.352;2022-09-21T09:25:21;3.45;;;3.25;;
74674;SDS011;63200;48.810;12.352;2022-09-21T09:27:52;3.35;;;3.15;;
74674;SDS011;63200;48.810;12.352;2022-09-21T09:30:23;3.20;;;3.00;;
74674;SDS011;63200;48.810;12.352;2022-09-21T09:33:06;2.78;;;2.60;;
74674;SDS011;63200;48.810;12.352;2022-09-21T09:35:45;3.70;;;2.95;;
74674;SDS011;63200;48.810;12.352;2022-09-21T09:38:16;3.42;;;2.95;;
74674;SDS011;63200;48.810;12.352;2022-09-21T09:52:14;3.85;;;3.00;;
74674;SDS011;63200;48.810;12.352;2022-09-21T09:54:40;8.63;;;3.42;;
74674;SDS011;63200;48.810;12.352;2022-09-21T09:57:06;4.00;;;3.70;;
74674;SDS011;63200;48.810;12.352;2022-09-21T09:59:35;4.07;;;3.72;;
74674;SDS011;63200;48.810;12.352;2022-09-21T10:02:20;3.65;;;3.30;;
74674;SDS011;63200;48.810;12.352;2022-09-21T10:04:58;3.03;;;2.83;;
74674;SDS011;63200;48.810;12.352;2022-09-21T10:07:33;3.33;;;3.13;;
74674;SDS011;63200;48.810;12.352;2022-09-21T10:12:56;3.20;;;3.00;;
74674;SDS011;63200;48.810;12.352;2022-09-21T10:15:29;3.00;;;2.90;;
74674;SDS011;63200;48.810;12.352;2022-09-21T10:18:03;3.05;;;2.75;;
74674;SDS011;63200;48.810;12.352;2022-09-21T10:20:31;3.33;;;2.65;;
74674;SDS011;63200;48.810;12.352;2022-09-21T10:22:57;3.67;;;2.83;;
74674;SDS011;63200;48.810;12.352;2022-09-21T10:25:24;2.60;;;2.40;;
74674;SDS011;63200;48.810;12.352;2022-09-21T10:27:50;2.55;;;2.40;;
74674;SDS011;63200;48.810;12.352;2022-09-21T10:30:35;4.75;;;2.83;;
74674;SDS011;63200;48.810;12.352;2022-09-21T10:33:02;3.65;;;2.78;;
74674;SDS011;63200;48.810;12.352;2022-09-21T10:35:28;6.15;;;2.67;;
74674;SDS011;63200;48.810;12.352;2022-09-21T10:38:10;2.97;;;2.78;;
74674;SDS011;63200;48.810;12.352;2022-09-21T10:40:41;4.18;;;3.22;;
74674;SDS011;63200;48.810;12.352;2022-09-21T10:43:17;3.22;;;3.03;;
74674;SDS011;63200;48.810;12.352;2022-09-21T10:45:52;3.28;;;2.83;;
74674;SDS011;63200;48.810;12.352;2022-09-21T10:48:20;3.97;;;2.60;;
74674;SDS011;63200;48.810;12.352;2022-09-21T10:50:48;2.30;;;2.20;;
74674;SDS011;63200;48.810;12.352;2022-09-21T10:58:32;3.10;;;2.90;;
74674;SDS011;63200;48.810;12.352;2022-09-21T11:06:26;3.75;;;2.85;;
74674;SDS011;63200;48.810;12.352;2022-09-21T11:08:57;2.95;;;2.70;;
74674;SDS011;63200;48.810;12.352;2022-09-21T11:14:00;4.40;;;2.50;;
74674;SDS011;63200;48.810;12.352;2022-09-21T11:16:37;2.78;;;2.58;;
74674;SDS011;63200;48.810;12.352;2022-09-21T11:24:52;2.65;;;2.47;;
74674;SDS011;63200;48.810;12.352;2022-09-21T11:27:30;3.05;;;2.30;;
74674;SDS011;63200;48.810;12.352;2022-09-21T11:30:01;6.50;;;2.85;;
74674;SDS011;63200;48.810;12.352;2022-09-21T11:35:34;2.58;;;1.98;;
74674;SDS011;63200;48.810;12.352;2022-09-21T11:53:37;1.70;;;1.40;;
74674;SDS011;63200;48.810;12.352;2022-09-21T11:56:59;3.33;;;1.50;;
74674;SDS011;63200;48.810;12.352;2022-09-21T11:59:28;3.40;;;1.50;;
74674;SDS011;63200;48.810;12.352;2022-09-21T12:02:35;1.58;;;1.48;;
74674;SDS011;63200;48.810;12.352;2022-09-21T12:05:14;1.65;;;1.55;;
74674;SDS011;63200;48.810;12.352;2022-09-21T12:16:46;2.67;;;1.38;;
74674;SDS011;63200;48.810;12.352;2022-09-21T12:22:27;1.65;;;1.65;;
74674;SDS011;63200;48.810;12.352;2022-09-21T12:24:55;4.53;;;1.58;;
74674;SDS011;63200;48.810;12.352;2022-09-21T12:27:30;5.53;;;1.80;;
74674;SDS011;63200;48.810;12.352;2022-09-21T12:30:19;1.90;;;1.40;;
74674;SDS011;63200;48.810;12.352;2022-09-21T12:35:41;1.20;;;1.20;;
74674;SDS011;63200;48.810;12.352;2022-09-21T12:38:18;1.23;;;1.23;;
74674;SDS011;63200;48.810;12.352;2022-09-21T12:40:48;1.52;;;1.30;;
74674;SDS011;63200;48.810;12.352;2022-09-21T12:43:33;1.50;;;1.38;;
74674;SDS011;63200;48.810;12.352;2022-09-21T12:48:42;1.35;;;1.35;;
74674;SDS011;63200;48.810;12.352;2022-09-21T12:51:17;2.97;;;1.48;;
74674;SDS011;63200;48.810;12.352;2022-09-21T12:53:49;1.50;;;1.40;;
74674;SDS011;63200;48.810;12.352;2022-09-21T12:56:23;1.40;;;1.30;;
74674;SDS011;63200;48.810;12.352;2022-09-21T12:59:05;1.23;;;1.02;;
74674;SDS011;63200;48.810;12.352;2022-09-21T13:01:43;1.10;;;1.10;;
74674;SDS011;63200;48.810;12.352;2022-09-21T13:10:19;1.58;;;1.02;;
74674;SDS011;63200;48.810;12.352;2022-09-21T13:13:04;1.20;;;1.10;;
74674;SDS011;63200;48.810;12.352;2022-09-21T13:15:42;1.65;;;1.25;;
74674;SDS011;63200;48.810;12.352;2022-09-21T13:18:23;1.00;;;0.85;;
74674;SDS011;63200;48.810;12.352;2022-09-21T13:20:53;1.73;;;1.10;;
74674;SDS011;63200;48.810;12.352;2022-09-21T13:26:10;0.85;;;0.80;;
74674;SDS011;63200;48.810;12.352;2022-09-21T13:31:28;1.02;;;1.02;;
74674;SDS011;63200;48.810;12.352;2022-09-21T13:36:45;1.33;;;0.95;;
74674;SDS011;63200;48.810;12.352;2022-09-21T13:39:44;1.00;;;1.00;;
74674;SDS011;63200;48.810;12.352;2022-09-21T13:45:48;1.10;;;1.10;;
74674;SDS011;63200;48.810;12.352;2022-09-21T13:47:51;1.10;;;1.00;;
74674;SDS011;63200;48.810;12.352;2022-09-21T13:50:23;1.17;;;1.08;;
74674;SDS011;63200;48.810;12.352;2022-09-21T13:53:00;1.00;;;1.00;;
74674;SDS011;63200;48.810;12.352;2022-09-21T13:55:29;3.83;;;1.00;;
74674;SDS011;63200;48.810;12.352;2022-09-21T13:57:59;2.90;;;2.53;;
74674;SDS011;63200;48.810;12.352;2022-09-21T14:00:32;1.60;;;1.17;;
74674;SDS011;63200;48.810;12.352;2022-09-21T14:03:03;1.33;;;1.23;;
74674;SDS011;63200;48.810;12.352;2022-09-21T14:05:42;1.30;;;1.20;;
74674;SDS011;63200;48.810;12.352;2022-09-21T14:10:40;2.42;;;1.10;;
74674;SDS011;63200;48.810;12.352;2022-09-21T14:13:27;1.10;;;1.10;;
74674;SDS011;63200;48.810;12.352;2022-09-21T14:18:53;1.05;;;1.05;;
74674;SDS011;63200;48.810;12.352;2022-09-21T14:21:19;1.20;;;1.20;;
74674;SDS011;63200;48.810;12.352;2022-09-21T14:26:33;1.33;;;1.27;;
74674;SDS011;63200;48.810;12.352;2022-09-21T14:31:45;2.55;;;2.03;;
74674;SDS011;63200;48.810;12.352;2022-09-21T14:34:14;2.30;;;2.10;;
74674;SDS011;63200;48.810;12.352;2022-09-21T14:36:44;3.50;;;3.20;;
74674;SDS011;63200;48.810;12.352;2022-09-21T14:39:24;1.40;;;1.40;;
74674;SDS011;63200;48.810;12.352;2022-09-21T14:41:55;1.75;;;1.10;;
74674;SDS011;63200;48.810;12.352;2022-09-21T14:44:26;2.58;;;1.17;;
74674;SDS011;63200;48.810;12.352;2022-09-21T14:49:53;1.42;;;1.27;;
74674;SDS011;63200;48.810;12.352;2022-09-21T14:55:26;1.25;;;0.80;;
74674;SDS011;63200;48.810;12.352;2022-09-21T14:58:41;2.17;;;1.02;;
74674;SDS011;63200;48.810;12.352;2022-09-21T15:01:33;1.73;;;1.10;;
74674;SDS011;63200;48.810;12.352;2022-09-21T15:07:07;1.90;;;1.20;;
74674;SDS011;63200;48.810;12.352;2022-09-21T15:10:09;1.30;;;1.20;;
74674;SDS011;63200;48.810;12.352;2022-09-21T15:18:22;15.43;;;6.05;;
74674;SDS011;63200;48.810;12.352;2022-09-21T15:20:59;9.73;;;4.18;;
74674;SDS011;63200;48.810;12.352;2022-09-21T15:23:28;1.60;;;1.15;;
74674;SDS011;63200;48.810;12.352;2022-09-21T15:26:07;1.08;;;1.08;;
74674;SDS011;63200;48.810;12.352;2022-09-21T15:28:41;1.45;;;1.20;;
74674;SDS011;63200;48.810;12.352;2022-09-21T15:31:14;3.10;;;1.40;;
74674;SDS011;63200;48.810;12.352;2022-09-21T15:33:40;1.25;;;1.20;;
74674;SDS011;63200;48.810;12.352;2022-09-21T15:36:10;1.10;;;1.10;;
74674;SDS011;63200;48.810;12.352;2022-09-21T15:38:36;1.20;;;1.10;;
74674;SDS011;63200;48.810;12.352;2022-09-21T15:41:03;2.08;;;0.93;;
74674;SDS011;63200;48.810;12.352;2022-09-21T15:43:30;0.75;;;0.75;;
74674;SDS011;63200;48.810;12.352;2022-09-21T15:45:59;1.40;;;1.30;;
74674;SDS011;63200;48.810;12.352;2022-09-21T15:48:31;2.53;;;1.40;;
74674;SDS011;63200;48.810;12.352;2022-09-21T15:54:14;1.92;;;1.40;;
74674;SDS011;63200;48.810;12.352;2022-09-21T15:56:41;1.33;;;1.23;;
74674;SDS011;63200;48.810;12.352;2022-09-21T15:59:10;2.70;;;1.05;;
74674;SDS011;63200;48.810;12.352;2022-09-21T16:01:40;2.95;;;1.30;;
74674;SDS011;63200;48.810;12.352;2022-09-21T16:04:14;1.05;;;1.05;;
74674;SDS011;63200;48.810;12.352;2022-09-21T16:06:47;1.85;;;1.20;;
74674;SDS011;63200;48.810;12.352;2022-09-21T16:11:51;1.15;;;1.15;;
74674;SDS011;63200;48.810;12.352;2022-09-21T16:14:17;1.38;;;1.27;;
74674;SDS011;63200;48.810;12.352;2022-09-21T16:22:35;2.05;;;1.23;;
74674;SDS011;63200;48.810;12.352;2022-09-21T16:27:58;1.80;;;1.70;;
74674;SDS011;63200;48.810;12.352;2022-09-21T16:33:31;2.92;;;1.40;;
74674;SDS011;63200;48.810;12.352;2022-09-21T16:36:30;2.25;;;1.50;;
74674;SDS011;63200;48.810;12.352;2022-09-21T16:38:50;11.00;;;2.85;;
74674;SDS011;63200;48.810;12.352;2022-09-21T16:41:19;1.30;;;1.30;;
74674;SDS011;63200;48.810;12.352;2022-09-21T16:43:46;14.82;;;3.33;;
74674;SDS011;63200;48.810;12.352;2022-09-21T16:46:14;1.90;;;1.70;;
74674;SDS011;63200;48.810;12.352;2022-09-21T16:48:39;3.70;;;1.75;;
74674;SDS011;63200;48.810;12.352;2022-09-21T16:51:09;2.83;;;1.60;;
74674;SDS011;63200;48.810;12.352;2022-09-21T16:53:36;7.97;;;2.65;;
74674;SDS011;63200;48.810;12.352;2022-09-21T16:56:01;7.10;;;2.65;;
74674;SDS011;63200;48.810;12.352;2022-09-21T16:58:27;6.65;;;2.50;;
74674;SDS011;63200;48.810;12.352;2022-09-21T17:00:52;13.50;;;3.65;;
74674;SDS011;63200;48.810;12.352;2022-09-21T17:03:18;8.65;;;3.72;;
74674;SDS011;63200;48.810;12.352;2022-09-21T17:05:44;2.90;;;2.60;;
74674;SDS011;63200;48.810;12.352;2022-09-21T17:08:10;4.28;;;2.13;;
74674;SDS011;63200;48.810;12.352;2022-09-21T17:10:36;13.82;;;3.50;;
74674;SDS011;63200;48.810;12.352;2022-09-21T17:13:03;4.22;;;2.72;;
74674;SDS011;63200;48.810;12.352;2022-09-21T17:15:31;3.65;;;2.10;;
74674;SDS011;63200;48.810;12.352;2022-09-21T17:17:58;4.75;;;1.73;;
74674;SDS011;63200;48.810;12.352;2022-09-21T17:20:31;3.70;;;1.33;;
74674;SDS011;63200;48.810;12.352;2022-09-21T17:22:59;1.40;;;1.35;;
74674;SDS011;63200;48.810;12.352;2022-09-21T17:25:27;4.22;;;1.20;;
74674;SDS011;63200;48.810;12.352;2022-09-21T17:27:53;1.60;;;1.35;;
74674;SDS011;63200;48.810;12.352;2022-09-21T17:30:21;2.85;;;1.42;;
74674;SDS011;63200;48.810;12.352;2022-09-21T17:32:48;4.65;;;1.75;;
74674;SDS011;63200;48.810;12.352;2022-09-21T17:38:05;1.65;;;1.42;;
74674;SDS011;63200;48.810;12.352;2022-09-21T17:40:32;2.75;;;1.70;;
74674;SDS011;63200;48.810;12.352;2022-09-21T17:45:53;1.45;;;1.45;;
74674;SDS011;63200;48.810;12.352;2022-09-21T17:48:27;2.67;;;2.10;;
74674;SDS011;63200;48.810;12.352;2022-09-21T17:50:53;3.00;;;2.20;;
74674;SDS011;63200;48.810;12.352;2022-09-21T17:53:18;4.72;;;3.00;;
74674;SDS011;63200;48.810;12.352;2022-09-21T17:56:16;10.15;;;4.68;;
74674;SDS011;63200;48.810;12.352;2022-09-21T18:03:57;6.35;;;3.83;;
74674;SDS011;63200;48.810;12.352;2022-09-21T18:06:22;10.02;;;5.07;;
74674;SDS011;63200;48.810;12.352;2022-09-21T18:08:48;12.07;;;5.95;;
74674;SDS011;63200;48.810;12.352;2022-09-21T18:14:11;7.60;;;4.45;;
74674;SDS011;63200;48.810;12.352;2022-09-21T18:25:32;7.88;;;5.13;;
74674;SDS011;63200;48.810;12.352;2022-09-21T18:28:09;9.43;;;5.50;;